sensor_id;sensor_type;location;lat;lon;timestamp;P1;durP1;ratioP1;P2;durP2;ratioP2
75071;SDS011;63651;55.728;38.022;2022-11-15T00:03:15;1.95;;;0.38;;
75071;SDS011;63651;55.728;38.022;2022-11-15T00:08:16;1.60;;;0.40;;
75071;SDS011;63651;55.728;38.022;2022-11-15T00:13:17;2.00;;;0.22;;
75071;SDS011;63651;55.728;38.022;2022-11-15T00:18:18;0.73;;;0.20;;
75071;SDS011;63651;55.728;38.022;2022-11-15T00:23:20;1.25;;;0.25;;
75071;SDS011;63651;55.728;38.022;2022-11-15T00:28:21;1.20;;;0.20;;
75071;SDS011;63651;55.728;38.022;2022-11-15T00:33:21;0.73;;;0.13;;
75071;SDS011;63651;55.728;38.022;2022-11-15T00:38:22;0.60;;;0.28;;
75071;SDS011;63651;55.728;38.022;2022-11-15T00:43:23;0.70;;;0.10;;
75071;SDS011;63651;55.728;38.022;2022-11-15T00:48:23;1.83;;;0.32;;
75071;SDS011;63651;55.728;38.022;2022-11-15T00:53:24;0.70;;;0.10;;
75071;SDS011;63651;55.728;38.022;2022-11-15T00:58:25;1.45;;;0.20;;
75071;SDS011;63651;55.728;38.022;2022-11-15T01:03:25;0.93;;;0.20;;
75071;SDS011;63651;55.728;38.022;2022-11-15T01:08:26;1.58;;;0.30;;
75071;SDS011;63651;55.728;38.022;2022-11-15T01:13:29;0.85;;;0.22;;
75071;SDS011;63651;55.728;38.022;2022-11-15T01:18:30;1.58;;;0.40;;
75071;SDS011;63651;55.728;38.022;2022-11-15T01:23:30;1.02;;;0.30;;
75071;SDS011;63651;55.728;38.022;2022-11-15T01:28:32;1.48;;;0.30;;
75071;SDS011;63651;55.728;38.022;2022-11-15T01:33:34;1.80;;;0.45;;
75071;SDS011;63651;55.728;38.022;2022-11-15T01:38:35;1.58;;;0.22;;
75071;SDS011;63651;55.728;38.022;2022-11-15T01:43:36;1.45;;;0.30;;
75071;SDS011;63651;55.728;38.022;2022-11-15T01:48:37;1.63;;;0.35;;
75071;SDS011;63651;55.728;38.022;2022-11-15T01:53:38;1.30;;;0.40;;
75071;SDS011;63651;55.728;38.022;2022-11-15T01:58:40;2.33;;;0.40;;
75071;SDS011;63651;55.728;38.022;2022-11-15T02:09:20;0.77;;;0.20;;
75071;SDS011;63651;55.728;38.022;2022-11-15T02:14:21;1.17;;;0.30;;
75071;SDS011;63651;55.728;38.022;2022-11-15T02:35:15;2.28;;;0.22;;
75071;SDS011;63651;55.728;38.022;2022-11-15T02:40:22;0.63;;;0.17;;
75071;SDS011;63651;55.728;38.022;2022-11-15T02:45:28;1.65;;;0.40;;
75071;SDS011;63651;55.728;38.022;2022-11-15T02:50:31;0.95;;;0.32;;
75071;SDS011;63651;55.728;38.022;2022-11-15T02:55:34;1.35;;;0.50;;
75071;SDS011;63651;55.728;38.022;2022-11-15T03:00:35;1.20;;;0.40;;
75071;SDS011;63651;55.728;38.022;2022-11-15T03:06:02;1.10;;;0.22;;
75071;SDS011;63651;55.728;38.022;2022-11-15T03:16:33;1.05;;;0.28;;
75071;SDS011;63651;55.728;38.022;2022-11-15T03:21:31;17.20;;;3.92;;
75071;SDS011;63651;55.728;38.022;2022-11-15T03:26:33;19.17;;;3.17;;
75071;SDS011;63651;55.728;38.022;2022-11-15T03:31:36;14.23;;;2.28;;
75071;SDS011;63651;55.728;38.022;2022-11-15T03:36:49;7.30;;;1.77;;
75071;SDS011;63651;55.728;38.022;2022-11-15T03:42:11;7.20;;;1.92;;
75071;SDS011;63651;55.728;38.022;2022-11-15T03:47:16;6.47;;;1.00;;
75071;SDS011;63651;55.728;38.022;2022-11-15T03:52:19;6.28;;;1.40;;
75071;SDS011;63651;55.728;38.022;2022-11-15T03:57:20;5.93;;;1.20;;
75071;SDS011;63651;55.728;38.022;2022-11-15T04:02:21;8.02;;;1.13;;
75071;SDS011;63651;55.728;38.022;2022-11-15T04:07:22;5.63;;;0.90;;
75071;SDS011;63651;55.728;38.022;2022-11-15T04:12:22;8.82;;;1.00;;
75071;SDS011;63651;55.728;38.022;2022-11-15T04:17:32;4.00;;;1.08;;
75071;SDS011;63651;55.728;38.022;2022-11-15T04:22:32;3.08;;;1.00;;
75071;SDS011;63651;55.728;38.022;2022-11-15T04:27:52;5.00;;;0.98;;
75071;SDS011;63651;55.728;38.022;2022-11-15T04:32:52;4.60;;;1.35;;
75071;SDS011;63651;55.728;38.022;2022-11-15T04:37:54;4.90;;;1.25;;
75071;SDS011;63651;55.728;38.022;2022-11-15T04:42:54;3.42;;;0.73;;
75071;SDS011;63651;55.728;38.022;2022-11-15T04:47:55;3.30;;;0.90;;
75071;SDS011;63651;55.728;38.022;2022-11-15T04:52:56;2.85;;;0.80;;
75071;SDS011;63651;55.728;38.022;2022-11-15T04:57:57;2.97;;;0.80;;
75071;SDS011;63651;55.728;38.022;2022-11-15T05:02:59;4.22;;;0.73;;
75071;SDS011;63651;55.728;38.022;2022-11-15T05:08:18;4.43;;;0.88;;
75071;SDS011;63651;55.728;38.022;2022-11-15T05:13:18;2.25;;;0.75;;
75071;SDS011;63651;55.728;38.022;2022-11-15T05:18:19;2.90;;;1.00;;
75071;SDS011;63651;55.728;38.022;2022-11-15T05:23:20;3.67;;;1.30;;
75071;SDS011;63651;55.728;38.022;2022-11-15T05:28:20;4.43;;;1.00;;
75071;SDS011;63651;55.728;38.022;2022-11-15T05:33:21;3.50;;;0.82;;
75071;SDS011;63651;55.728;38.022;2022-11-15T05:38:23;2.70;;;0.73;;
75071;SDS011;63651;55.728;38.022;2022-11-15T05:43:24;2.35;;;0.80;;
75071;SDS011;63651;55.728;38.022;2022-11-15T05:48:24;3.35;;;1.08;;
75071;SDS011;63651;55.728;38.022;2022-11-15T05:53:25;3.47;;;1.10;;
75071;SDS011;63651;55.728;38.022;2022-11-15T05:58:26;4.05;;;1.63;;
75071;SDS011;63651;55.728;38.022;2022-11-15T06:03:27;3.53;;;1.20;;
75071;SDS011;63651;55.728;38.022;2022-11-15T06:08:27;2.75;;;1.13;;
75071;SDS011;63651;55.728;38.022;2022-11-15T06:13:28;3.35;;;1.20;;
75071;SDS011;63651;55.728;38.022;2022-11-15T06:18:31;2.53;;;0.98;;
75071;SDS011;63651;55.728;38.022;2022-11-15T06:23:33;3.85;;;1.35;;
75071;SDS011;63651;55.728;38.022;2022-11-15T06:28:34;2.88;;;1.02;;
75071;SDS011;63651;55.728;38.022;2022-11-15T06:33:35;3.67;;;1.48;;
75071;SDS011;63651;55.728;38.022;2022-11-15T06:38:36;4.28;;;1.20;;
75071;SDS011;63651;55.728;38.022;2022-11-15T06:43:36;2.72;;;1.30;;
75071;SDS011;63651;55.728;38.022;2022-11-15T06:48:37;2.33;;;0.90;;
75071;SDS011;63651;55.728;38.022;2022-11-15T06:53:38;1.85;;;0.93;;
75071;SDS011;63651;55.728;38.022;2022-11-15T06:58:39;2.90;;;0.95;;
75071;SDS011;63651;55.728;38.022;2022-11-15T07:03:40;3.00;;;1.20;;
75071;SDS011;63651;55.728;38.022;2022-11-15T07:08:41;4.35;;;1.00;;
75071;SDS011;63651;55.728;38.022;2022-11-15T07:13:42;4.13;;;1.17;;
75071;SDS011;63651;55.728;38.022;2022-11-15T07:18:43;5.32;;;2.25;;
75071;SDS011;63651;55.728;38.022;2022-11-15T07:23:43;4.70;;;1.48;;
75071;SDS011;63651;55.728;38.022;2022-11-15T07:28:44;3.72;;;1.85;;
75071;SDS011;63651;55.728;38.022;2022-11-15T07:33:45;4.85;;;1.88;;
75071;SDS011;63651;55.728;38.022;2022-11-15T07:38:45;5.18;;;2.13;;
75071;SDS011;63651;55.728;38.022;2022-11-15T07:43:46;4.15;;;1.73;;
75071;SDS011;63651;55.728;38.022;2022-11-15T07:48:47;2.25;;;1.15;;
75071;SDS011;63651;55.728;38.022;2022-11-15T07:53:48;3.53;;;1.73;;
75071;SDS011;63651;55.728;38.022;2022-11-15T07:58:48;3.15;;;1.52;;
75071;SDS011;63651;55.728;38.022;2022-11-15T08:03:50;6.47;;;2.30;;
75071;SDS011;63651;55.728;38.022;2022-11-15T08:08:51;4.88;;;2.00;;
75071;SDS011;63651;55.728;38.022;2022-11-15T08:13:52;3.45;;;2.08;;
75071;SDS011;63651;55.728;38.022;2022-11-15T08:18:52;3.60;;;2.03;;
75071;SDS011;63651;55.728;38.022;2022-11-15T08:23:53;6.18;;;2.30;;
75071;SDS011;63651;55.728;38.022;2022-11-15T08:28:54;7.63;;;2.60;;
75071;SDS011;63651;55.728;38.022;2022-11-15T08:33:54;4.53;;;2.50;;
75071;SDS011;63651;55.728;38.022;2022-11-15T08:38:55;6.68;;;2.90;;
75071;SDS011;63651;55.728;38.022;2022-11-15T08:43:56;5.05;;;2.63;;
75071;SDS011;63651;55.728;38.022;2022-11-15T08:48:56;5.05;;;2.50;;
75071;SDS011;63651;55.728;38.022;2022-11-15T08:53:57;6.25;;;2.90;;
75071;SDS011;63651;55.728;38.022;2022-11-15T08:58:58;5.88;;;2.67;;
75071;SDS011;63651;55.728;38.022;2022-11-15T09:03:59;6.55;;;3.30;;
75071;SDS011;63651;55.728;38.022;2022-11-15T09:09:00;5.32;;;2.75;;
75071;SDS011;63651;55.728;38.022;2022-11-15T09:14:01;6.00;;;2.65;;
75071;SDS011;63651;55.728;38.022;2022-11-15T09:19:01;4.65;;;2.42;;
75071;SDS011;63651;55.728;38.022;2022-11-15T09:24:02;4.50;;;2.20;;
75071;SDS011;63651;55.728;38.022;2022-11-15T09:29:04;5.10;;;1.90;;
75071;SDS011;63651;55.728;38.022;2022-11-15T09:34:05;5.07;;;2.20;;
75071;SDS011;63651;55.728;38.022;2022-11-15T09:39:05;5.93;;;2.20;;
75071;SDS011;63651;55.728;38.022;2022-11-15T09:49:07;5.32;;;2.28;;
75071;SDS011;63651;55.728;38.022;2022-11-15T09:59:27;3.72;;;2.20;;
75071;SDS011;63651;55.728;38.022;2022-11-15T10:04:31;6.93;;;2.90;;
75071;SDS011;63651;55.728;38.022;2022-11-15T10:09:41;4.82;;;2.35;;
75071;SDS011;63651;55.728;38.022;2022-11-15T10:14:45;6.03;;;2.33;;
75071;SDS011;63651;55.728;38.022;2022-11-15T10:24:50;9.40;;;3.85;;
75071;SDS011;63651;55.728;38.022;2022-11-15T10:29:52;7.50;;;3.20;;
75071;SDS011;63651;55.728;38.022;2022-11-15T10:34:53;6.95;;;3.30;;
75071;SDS011;63651;55.728;38.022;2022-11-15T10:40:13;6.65;;;3.58;;
75071;SDS011;63651;55.728;38.022;2022-11-15T10:50:27;7.43;;;3.45;;
75071;SDS011;63651;55.728;38.022;2022-11-15T10:55:29;7.22;;;3.30;;
75071;SDS011;63651;55.728;38.022;2022-11-15T11:00:39;5.40;;;2.70;;
75071;SDS011;63651;55.728;38.022;2022-11-15T11:05:40;10.95;;;3.67;;
75071;SDS011;63651;55.728;38.022;2022-11-15T11:10:51;7.90;;;2.90;;
75071;SDS011;63651;55.728;38.022;2022-11-15T11:21:15;7.95;;;3.15;;
75071;SDS011;63651;55.728;38.022;2022-11-15T11:41:42;6.32;;;2.33;;
75071;SDS011;63651;55.728;38.022;2022-11-15T11:56:54;6.07;;;2.50;;
75071;SDS011;63651;55.728;38.022;2022-11-15T12:02:00;5.47;;;2.33;;
75071;SDS011;63651;55.728;38.022;2022-11-15T12:07:07;5.97;;;2.15;;
75071;SDS011;63651;55.728;38.022;2022-11-15T12:12:17;3.33;;;2.15;;
75071;SDS011;63651;55.728;38.022;2022-11-15T12:17:23;4.93;;;2.35;;
75071;SDS011;63651;55.728;38.022;2022-11-15T12:22:28;3.55;;;2.00;;
75071;SDS011;63651;55.728;38.022;2022-11-15T12:27:38;4.38;;;2.20;;
75071;SDS011;63651;55.728;38.022;2022-11-15T12:32:40;5.20;;;2.90;;
75071;SDS011;63651;55.728;38.022;2022-11-15T12:37:55;5.63;;;3.13;;
75071;SDS011;63651;55.728;38.022;2022-11-15T12:58:28;5.03;;;2.58;;
75071;SDS011;63651;55.728;38.022;2022-11-15T13:08:58;5.32;;;2.75;;
75071;SDS011;63651;55.728;38.022;2022-11-15T13:13:59;8.65;;;2.85;;
75071;SDS011;63651;55.728;38.022;2022-11-15T13:19:00;6.28;;;2.75;;
75071;SDS011;63651;55.728;38.022;2022-11-15T13:24:02;6.35;;;2.95;;
75071;SDS011;63651;55.728;38.022;2022-11-15T13:29:03;6.05;;;2.70;;
75071;SDS011;63651;55.728;38.022;2022-11-15T13:34:15;5.35;;;2.92;;
75071;SDS011;63651;55.728;38.022;2022-11-15T13:44:27;7.65;;;3.00;;
75071;SDS011;63651;55.728;38.022;2022-11-15T13:49:29;6.45;;;3.20;;
75071;SDS011;63651;55.728;38.022;2022-11-15T13:54:34;6.18;;;3.00;;
75071;SDS011;63651;55.728;38.022;2022-11-15T13:59:57;6.43;;;2.78;;
75071;SDS011;63651;55.728;38.022;2022-11-15T14:04:57;4.35;;;2.75;;
75071;SDS011;63651;55.728;38.022;2022-11-15T14:09:58;8.27;;;3.63;;
75071;SDS011;63651;55.728;38.022;2022-11-15T14:30:31;7.05;;;3.90;;
75071;SDS011;63651;55.728;38.022;2022-11-15T14:35:32;7.18;;;4.13;;
75071;SDS011;63651;55.728;38.022;2022-11-15T14:40:33;7.68;;;3.55;;
75071;SDS011;63651;55.728;38.022;2022-11-15T14:45:34;6.40;;;3.13;;
75071;SDS011;63651;55.728;38.022;2022-11-15T14:50:35;6.95;;;3.58;;
75071;SDS011;63651;55.728;38.022;2022-11-15T14:55:36;5.10;;;3.03;;
75071;SDS011;63651;55.728;38.022;2022-11-15T15:00:37;6.82;;;3.30;;
75071;SDS011;63651;55.728;38.022;2022-11-15T15:05:39;6.47;;;3.45;;
75071;SDS011;63651;55.728;38.022;2022-11-15T15:10:41;7.40;;;3.33;;
75071;SDS011;63651;55.728;38.022;2022-11-15T15:15:42;6.75;;;2.90;;
75071;SDS011;63651;55.728;38.022;2022-11-15T15:20:43;7.13;;;2.65;;
75071;SDS011;63651;55.728;38.022;2022-11-15T15:25:44;5.57;;;2.40;;
75071;SDS011;63651;55.728;38.022;2022-11-15T15:30:46;5.13;;;2.47;;
75071;SDS011;63651;55.728;38.022;2022-11-15T15:35:47;4.38;;;2.70;;
75071;SDS011;63651;55.728;38.022;2022-11-15T15:40:47;4.35;;;2.85;;
75071;SDS011;63651;55.728;38.022;2022-11-15T15:45:48;5.60;;;2.60;;
75071;SDS011;63651;55.728;38.022;2022-11-15T15:50:49;4.50;;;2.38;;
75071;SDS011;63651;55.728;38.022;2022-11-15T15:55:49;5.07;;;2.55;;
75071;SDS011;63651;55.728;38.022;2022-11-15T16:00:50;5.93;;;2.60;;
75071;SDS011;63651;55.728;38.022;2022-11-15T16:05:51;4.13;;;2.30;;
75071;SDS011;63651;55.728;38.022;2022-11-15T16:10:52;6.20;;;2.80;;
75071;SDS011;63651;55.728;38.022;2022-11-15T16:15:53;6.70;;;3.10;;
75071;SDS011;63651;55.728;38.022;2022-11-15T16:20:55;5.40;;;2.85;;
75071;SDS011;63651;55.728;38.022;2022-11-15T16:25:57;5.00;;;2.80;;
75071;SDS011;63651;55.728;38.022;2022-11-15T16:36:01;5.35;;;2.67;;
75071;SDS011;63651;55.728;38.022;2022-11-15T16:41:02;4.95;;;2.35;;
75071;SDS011;63651;55.728;38.022;2022-11-15T16:46:06;3.65;;;2.30;;
75071;SDS011;63651;55.728;38.022;2022-11-15T16:51:07;5.53;;;2.58;;
75071;SDS011;63651;55.728;38.022;2022-11-15T17:06:15;5.45;;;2.72;;
75071;SDS011;63651;55.728;38.022;2022-11-15T17:11:19;6.22;;;2.70;;
75071;SDS011;63651;55.728;38.022;2022-11-15T17:16:20;5.97;;;2.80;;
75071;SDS011;63651;55.728;38.022;2022-11-15T17:21:21;4.63;;;2.65;;
75071;SDS011;63651;55.728;38.022;2022-11-15T17:26:21;5.10;;;2.40;;
75071;SDS011;63651;55.728;38.022;2022-11-15T17:31:22;4.47;;;2.20;;
75071;SDS011;63651;55.728;38.022;2022-11-15T17:36:24;4.85;;;2.58;;
75071;SDS011;63651;55.728;38.022;2022-11-15T17:41:25;4.00;;;2.85;;
75071;SDS011;63651;55.728;38.022;2022-11-15T17:46:26;5.82;;;4.68;;
75071;SDS011;63651;55.728;38.022;2022-11-15T17:51:27;4.72;;;4.28;;
75071;SDS011;63651;55.728;38.022;2022-11-15T17:56:28;5.30;;;4.75;;
75071;SDS011;63651;55.728;38.022;2022-11-15T18:01:31;6.40;;;4.95;;
75071;SDS011;63651;55.728;38.022;2022-11-15T18:06:32;10.85;;;9.93;;
75071;SDS011;63651;55.728;38.022;2022-11-15T18:11:35;9.43;;;8.55;;
75071;SDS011;63651;55.728;38.022;2022-11-15T18:16:37;8.43;;;7.65;;
75071;SDS011;63651;55.728;38.022;2022-11-15T18:21:43;6.38;;;5.85;;
75071;SDS011;63651;55.728;38.022;2022-11-15T18:26:57;7.20;;;4.20;;
75071;SDS011;63651;55.728;38.022;2022-11-15T18:31:58;5.72;;;3.55;;
75071;SDS011;63651;55.728;38.022;2022-11-15T18:36:59;5.35;;;3.20;;
75071;SDS011;63651;55.728;38.022;2022-11-15T18:42:00;9.52;;;3.20;;
75071;SDS011;63651;55.728;38.022;2022-11-15T18:47:01;5.18;;;3.13;;
75071;SDS011;63651;55.728;38.022;2022-11-15T18:52:02;6.43;;;5.00;;
75071;SDS011;63651;55.728;38.022;2022-11-15T18:57:02;7.68;;;5.75;;
75071;SDS011;63651;55.728;38.022;2022-11-15T19:02:03;8.32;;;6.25;;
75071;SDS011;63651;55.728;38.022;2022-11-15T19:07:04;7.65;;;5.50;;
75071;SDS011;63651;55.728;38.022;2022-11-15T19:12:05;7.60;;;5.35;;
75071;SDS011;63651;55.728;38.022;2022-11-15T19:17:05;6.78;;;5.07;;
75071;SDS011;63651;55.728;38.022;2022-11-15T19:22:06;7.78;;;4.90;;
75071;SDS011;63651;55.728;38.022;2022-11-15T19:27:07;7.60;;;3.80;;
75071;SDS011;63651;55.728;38.022;2022-11-15T19:32:08;4.30;;;3.35;;
75071;SDS011;63651;55.728;38.022;2022-11-15T19:37:09;7.13;;;3.70;;
75071;SDS011;63651;55.728;38.022;2022-11-15T19:42:10;3.80;;;2.80;;
75071;SDS011;63651;55.728;38.022;2022-11-15T19:47:10;4.68;;;2.53;;
75071;SDS011;63651;55.728;38.022;2022-11-15T19:52:11;4.22;;;2.65;;
75071;SDS011;63651;55.728;38.022;2022-11-15T19:57:12;4.60;;;2.42;;
75071;SDS011;63651;55.728;38.022;2022-11-15T20:02:12;4.13;;;2.35;;
75071;SDS011;63651;55.728;38.022;2022-11-15T20:07:13;4.63;;;2.35;;
75071;SDS011;63651;55.728;38.022;2022-11-15T20:12:14;5.35;;;2.20;;
75071;SDS011;63651;55.728;38.022;2022-11-15T20:17:14;6.43;;;2.13;;
75071;SDS011;63651;55.728;38.022;2022-11-15T20:22:15;3.60;;;1.80;;
75071;SDS011;63651;55.728;38.022;2022-11-15T20:27:16;2.83;;;1.50;;
75071;SDS011;63651;55.728;38.022;2022-11-15T20:32:16;4.70;;;1.80;;
75071;SDS011;63651;55.728;38.022;2022-11-15T20:37:17;3.38;;;1.55;;
75071;SDS011;63651;55.728;38.022;2022-11-15T20:42:19;3.50;;;1.55;;
75071;SDS011;63651;55.728;38.022;2022-11-15T20:47:20;4.03;;;1.23;;
75071;SDS011;63651;55.728;38.022;2022-11-15T20:52:20;2.70;;;1.30;;
75071;SDS011;63651;55.728;38.022;2022-11-15T20:57:21;3.45;;;1.90;;
75071;SDS011;63651;55.728;38.022;2022-11-15T21:02:22;5.20;;;2.03;;
75071;SDS011;63651;55.728;38.022;2022-11-15T21:07:22;4.47;;;2.00;;
75071;SDS011;63651;55.728;38.022;2022-11-15T21:12:23;4.03;;;2.10;;
75071;SDS011;63651;55.728;38.022;2022-11-15T21:17:24;4.82;;;3.03;;
75071;SDS011;63651;55.728;38.022;2022-11-15T21:22:24;6.18;;;3.00;;
75071;SDS011;63651;55.728;38.022;2022-11-15T21:27:25;5.78;;;3.55;;
75071;SDS011;63651;55.728;38.022;2022-11-15T21:32:26;5.60;;;3.75;;
75071;SDS011;63651;55.728;38.022;2022-11-15T21:37:28;5.25;;;3.20;;
75071;SDS011;63651;55.728;38.022;2022-11-15T21:42:29;6.93;;;3.85;;
75071;SDS011;63651;55.728;38.022;2022-11-15T21:47:29;5.47;;;3.50;;
75071;SDS011;63651;55.728;38.022;2022-11-15T21:52:30;5.50;;;3.78;;
75071;SDS011;63651;55.728;38.022;2022-11-15T21:57:31;4.32;;;3.05;;
75071;SDS011;63651;55.728;38.022;2022-11-15T22:02:31;4.20;;;2.80;;
75071;SDS011;63651;55.728;38.022;2022-11-15T22:07:32;4.43;;;2.53;;
75071;SDS011;63651;55.728;38.022;2022-11-15T22:12:33;4.95;;;2.63;;
75071;SDS011;63651;55.728;38.022;2022-11-15T22:17:33;4.68;;;2.78;;
75071;SDS011;63651;55.728;38.022;2022-11-15T22:23:00;6.10;;;2.95;;
75071;SDS011;63651;55.728;38.022;2022-11-15T22:28:01;5.68;;;2.63;;
75071;SDS011;63651;55.728;38.022;2022-11-15T22:33:02;2.97;;;2.00;;
75071;SDS011;63651;55.728;38.022;2022-11-15T22:38:03;4.00;;;2.13;;
75071;SDS011;63651;55.728;38.022;2022-11-15T22:43:03;3.92;;;2.40;;
75071;SDS011;63651;55.728;38.022;2022-11-15T22:48:04;4.03;;;2.28;;
75071;SDS011;63651;55.728;38.022;2022-11-15T22:53:05;4.22;;;2.50;;
75071;SDS011;63651;55.728;38.022;2022-11-15T22:58:06;4.65;;;2.30;;
75071;SDS011;63651;55.728;38.022;2022-11-15T23:03:08;4.40;;;2.20;;
75071;SDS011;63651;55.728;38.022;2022-11-15T23:08:08;5.18;;;1.83;;
75071;SDS011;63651;55.728;38.022;2022-11-15T23:13:11;3.90;;;2.25;;
75071;SDS011;63651;55.728;38.022;2022-11-15T23:18:18;3.10;;;2.00;;
75071;SDS011;63651;55.728;38.022;2022-11-15T23:23:18;4.03;;;2.00;;
75071;SDS011;63651;55.728;38.022;2022-11-15T23:28:19;3.10;;;1.85;;
75071;SDS011;63651;55.728;38.022;2022-11-15T23:33:20;4.38;;;2.08;;
75071;SDS011;63651;55.728;38.022;2022-11-15T23:38:39;2.83;;;1.65;;
75071;SDS011;63651;55.728;38.022;2022-11-15T23:43:40;3.22;;;1.60;;
75071;SDS011;63651;55.728;38.022;2022-11-15T23:48:41;4.15;;;1.67;;
75071;SDS011;63651;55.728;38.022;2022-11-15T23:53:42;2.78;;;1.73;;
75071;SDS011;63651;55.728;38.022;2022-11-15T23:58:43;2.25;;;1.48;;
